Time;durP1;ratioP1;P1;durP2;ratioP2;P2;SDS_P1;SDS_P2;PMS_P1;PMS_P2;Temp;Humidity;BMP_temperature;BMP_pressure;BME280_temperature;BME280_humidity;BME280_pressure;Samples;Min_cycle;Max_cycle;Signal;HPM_P1;HPM_P2
2023/08/29 00:02:40;;;;;;;5.30;3.50;;;;;12.40;95426.00;;;;8220386;28;20233;-68
2023/08/29 00:06:46;;;;;;;2.60;2.40;;;;;12.40;95407.00;;;;8222045;28;20317;-67
2023/08/29 00:10:57;;;;;;;2.63;2.50;;;;;12.50;95413.00;;;;8222940;28;20325;-67
2023/08/29 00:15:01;;;;;;;3.70;3.30;;;;;12.50;95422.00;;;;8220971;28;20282;-67
2023/08/29 00:19:08;;;;;;;7.32;2.42;;;;;12.50;95433.00;;;;8220750;28;20774;-68
2023/08/29 00:23:14;;;;;;;2.85;2.58;;;;;12.50;95434.00;;;;8220055;28;20585;-68
2023/08/29 00:27:20;;;;;;;2.90;2.70;;;;;12.50;95443.00;;;;8222674;28;20652;-68
2023/08/29 00:31:23;;;;;;;3.40;2.75;;;;;12.50;95452.00;;;;8217789;28;20691;-68
2023/08/29 00:35:27;;;;;;;8.30;3.05;;;;;12.50;95438.00;;;;8219717;28;20225;-68
2023/08/29 00:39:33;;;;;;;3.33;2.90;;;;;12.40;95428.00;;;;8220146;28;20210;-68
2023/08/29 00:43:37;;;;;;;2.95;2.72;;;;;12.40;95433.00;;;;8218540;28;20227;-68
2023/08/29 00:47:41;;;;;;;3.70;3.33;;;;;12.30;95431.00;;;;8221579;28;20227;-68
2023/08/29 00:51:44;;;;;;;2.80;2.60;;;;;12.20;95421.00;;;;8222605;28;20201;-67
2023/08/29 00:55:55;;;;;;;3.10;2.80;;;;;12.20;95422.00;;;;8208643;28;20210;-67
2023/08/29 01:00:00;;;;;;;6.28;2.97;;;;;12.10;95417.00;;;;8225390;28;20239;-68
2023/08/29 01:04:09;;;;;;;4.05;2.80;;;;;12.10;95416.00;;;;8216237;28;20297;-71
2023/08/29 01:08:17;;;;;;;2.60;2.40;;;;;12.10;95415.00;;;;8233407;28;20231;-69
2023/08/29 01:12:20;;;;;;;2.78;2.58;;;;;12.10;95422.00;;;;8221164;28;20197;-70
2023/08/29 01:16:32;;;;;;;2.60;2.40;;;;;12.10;95417.00;;;;8213697;28;20210;-70
2023/08/29 01:20:38;;;;;;;2.80;2.60;;;;;12.10;95399.00;;;;8222070;28;20253;-70
2023/08/29 01:24:57;;;;;;;2.22;2.03;;;;;12.00;95389.00;;;;8217702;28;20204;-70
2023/08/29 01:29:03;;;;;;;3.75;2.60;;;;;12.00;95380.00;;;;8222925;28;20244;-71
2023/08/29 01:33:10;;;;;;;2.53;2.08;;;;;12.00;95379.00;;;;8219955;28;20203;-70
2023/08/29 01:37:14;;;;;;;2.10;1.90;;;;;12.00;95380.00;;;;8223999;28;20303;-70
2023/08/29 01:41:18;;;;;;;3.72;2.22;;;;;12.00;95375.00;;;;8215643;28;21011;-70
2023/08/29 01:45:23;;;;;;;2.65;2.08;;;;;12.00;95365.00;;;;8225488;28;20297;-71
2023/08/29 01:49:27;;;;;;;4.10;2.60;;;;;12.00;95352.00;;;;8214751;28;20231;-70
2023/08/29 01:53:31;;;;;;;1.48;1.42;;;;;12.10;95358.00;;;;8219401;28;20630;-71
2023/08/29 01:57:36;;;;;;;5.53;2.47;;;;;12.00;95353.00;;;;8214888;28;20305;-71
2023/08/29 02:01:49;;;;;;;4.80;2.47;;;;;12.10;95339.00;;;;8218154;28;20306;-71
2023/08/29 02:05:53;;;;;;;3.72;2.70;;;;;12.10;95349.00;;;;8212130;28;20203;-70
2023/08/29 02:09:58;;;;;;;3.72;2.60;;;;;12.10;95358.00;;;;8216661;28;20730;-71
2023/08/29 02:14:01;;;;;;;5.97;2.65;;;;;12.10;95375.00;;;;8215652;28;20617;-69
2023/08/29 02:18:08;;;;;;;3.22;2.67;;;;;12.10;95375.00;;;;8217341;28;20640;-69
2023/08/29 02:22:11;;;;;;;4.38;2.72;;;;;12.10;95368.00;;;;8216857;28;20297;-69
2023/08/29 02:26:17;;;;;;;2.78;2.45;;;;;12.10;95354.00;;;;8223255;28;20235;-69
2023/08/29 02:30:20;;;;;;;3.80;2.90;;;;;12.10;95354.00;;;;8216039;28;20258;-69
2023/08/29 02:34:33;;;;;;;10.52;2.42;;;;;12.10;95362.00;;;;8215920;28;20294;-69
2023/08/29 02:38:38;;;;;;;2.80;2.42;;;;;12.10;95368.00;;;;8215675;28;20295;-69
2023/08/29 02:42:43;;;;;;;4.38;3.25;;;;;12.10;95362.00;;;;8216550;28;20763;-70
2023/08/29 02:46:48;;;;;;;2.45;2.10;;;;;12.10;95359.00;;;;8215237;28;20961;-70
2023/08/29 02:50:53;;;;;;;4.22;2.90;;;;;12.10;95359.00;;;;8216404;28;20200;-70
2023/08/29 02:54:56;;;;;;;5.07;3.47;;;;;12.20;95352.00;;;;8221887;28;20203;-70
2023/08/29 02:58:59;;;;;;;2.92;2.63;;;;;12.20;95352.00;;;;8215910;28;20206;-70
2023/08/29 03:03:11;;;;;;;6.10;2.83;;;;;12.20;95355.00;;;;8272868;22;20237;-71
2023/08/29 03:07:15;;;;;;;5.78;2.92;;;;;12.20;95352.00;;;;8282159;28;20887;-69
2023/08/29 03:11:18;;;;;;;4.05;2.83;;;;;12.20;95360.00;;;;8279911;28;20706;-70
2023/08/29 03:15:21;;;;;;;4.63;3.10;;;;;12.20;95353.00;;;;8268378;28;20246;-71
2023/08/29 03:19:25;;;;;;;4.32;3.00;;;;;12.20;95357.00;;;;8270893;28;20296;-70
2023/08/29 03:23:29;;;;;;;3.25;2.40;;;;;12.20;95364.00;;;;8272861;28;21007;-71
2023/08/29 03:27:34;;;;;;;4.50;3.08;;;;;12.20;95353.00;;;;8281727;28;20333;-70
2023/08/29 03:31:39;;;;;;;4.88;3.10;;;;;12.30;95348.00;;;;8274537;28;20218;-70
2023/08/29 03:35:43;;;;;;;3.70;2.63;;;;;12.30;95351.00;;;;8268063;28;20206;-70
2023/08/29 03:39:48;;;;;;;3.67;2.75;;;;;12.30;95351.00;;;;8273255;28;20285;-70
2023/08/29 03:43:51;;;;;;;4.88;3.20;;;;;12.30;95347.00;;;;8276592;28;20409;-72
2023/08/29 03:47:55;;;;;;;2.35;2.17;;;;;12.30;95345.00;;;;8273263;28;20341;-70
2023/08/29 03:51:59;;;;;;;5.68;3.72;;;;;12.30;95342.00;;;;8271320;28;20874;-71
2023/08/29 03:56:09;;;;;;;5.32;3.70;;;;;12.40;95347.00;;;;8271566;28;20318;-70
2023/08/29 04:00:14;;;;;;;5.97;3.95;;;;;12.40;95346.00;;;;8276715;28;20206;-71
2023/08/29 04:04:17;;;;;;;4.97;3.50;;;;;12.40;95350.00;;;;8277953;28;20344;-69
2023/08/29 04:08:20;;;;;;;8.45;4.38;;;;;12.40;95352.00;;;;8281625;28;20851;-71
2023/08/29 04:12:27;;;;;;;7.78;4.30;;;;;12.40;95350.00;;;;8270310;28;20198;-69
2023/08/29 04:16:30;;;;;;;8.30;3.80;;;;;12.50;95350.00;;;;8279320;28;20204;-70
2023/08/29 04:20:37;;;;;;;7.90;4.45;;;;;12.50;95346.00;;;;8281456;28;20209;-71
2023/08/29 04:24:43;;;;;;;9.50;4.65;;;;;12.50;95344.00;;;;8280299;28;20204;-67
2023/08/29 04:28:47;;;;;;;6.95;4.85;;;;;12.50;95345.00;;;;8277710;28;20320;-71
2023/08/29 04:33:00;;;;;;;11.07;5.72;;;;;12.60;95351.00;;;;8279763;28;20202;-68
2023/08/29 04:37:04;;;;;;;12.95;5.13;;;;;12.60;95349.00;;;;8279064;28;20198;-68
2023/08/29 04:41:07;;;;;;;12.52;5.20;;;;;12.60;95349.00;;;;8277732;28;20288;-69
2023/08/29 04:45:15;;;;;;;9.85;4.60;;;;;12.60;95355.00;;;;8278865;28;20200;-68
2023/08/29 04:49:22;;;;;;;9.48;3.50;;;;;12.60;95347.00;;;;8280902;28;20340;-68
2023/08/29 04:53:25;;;;;;;9.55;4.78;;;;;12.60;95348.00;;;;8278214;28;20288;-67
2023/08/29 04:57:31;;;;;;;8.32;4.60;;;;;12.70;95355.00;;;;8279236;28;20206;-67
2023/08/29 05:01:38;;;;;;;6.90;3.72;;;;;12.70;95356.00;;;;8283290;28;20198;-67
2023/08/29 05:05:46;;;;;;;8.40;4.32;;;;;12.70;95356.00;;;;8283893;28;20663;-67
2023/08/29 05:09:50;;;;;;;9.38;4.88;;;;;12.70;95357.00;;;;8282252;28;20585;-66
2023/08/29 05:13:54;;;;;;;7.05;3.95;;;;;12.70;95358.00;;;;8279865;28;20204;-66
2023/08/29 05:18:02;;;;;;;10.35;4.55;;;;;12.80;95342.00;;;;8283615;28;20205;-66
2023/08/29 05:22:07;;;;;;;10.68;5.07;;;;;12.80;95350.00;;;;8281655;28;20329;-67
2023/08/29 05:26:10;;;;;;;8.68;4.30;;;;;12.80;95363.00;;;;8282350;28;20618;-67
2023/08/29 05:30:15;;;;;;;9.65;4.65;;;;;12.80;95357.00;;;;8282036;28;20260;-67
2023/08/29 05:34:25;;;;;;;9.70;4.78;;;;;12.80;95358.00;;;;8282825;28;20293;-67
2023/08/29 05:38:28;;;;;;;9.93;5.03;;;;;12.80;95367.00;;;;8285920;28;20241;-67
2023/08/29 05:42:32;;;;;;;11.38;4.53;;;;;12.80;95362.00;;;;8276716;28;20726;-67
2023/08/29 05:46:36;;;;;;;9.75;4.65;;;;;12.90;95365.00;;;;8282743;28;20209;-68
2023/08/29 05:50:42;;;;;;;9.70;5.32;;;;;12.90;95369.00;;;;8283736;28;20312;-67
2023/08/29 05:54:48;;;;;;;10.10;5.05;;;;;12.90;95368.00;;;;8280822;28;20255;-67
2023/08/29 05:58:51;;;;;;;12.55;4.97;;;;;12.90;95365.00;;;;8282330;28;20292;-67
2023/08/29 06:02:54;;;;;;;11.02;4.80;;;;;13.00;95368.00;;;;8282121;28;20838;-67
2023/08/29 06:06:59;;;;;;;9.77;4.97;;;;;13.00;95372.00;;;;8283019;28;20252;-68
2023/08/29 06:11:03;;;;;;;13.68;5.07;;;;;13.00;95379.00;;;;8282226;28;20342;-68
2023/08/29 06:15:10;;;;;;;10.60;5.05;;;;;13.10;95373.00;;;;8280544;28;20249;-68
2023/08/29 06:19:16;;;;;;;11.60;4.97;;;;;13.20;95385.00;;;;8287133;28;20728;-68
2023/08/29 06:23:21;;;;;;;10.70;5.07;;;;;13.30;95385.00;;;;8281990;28;20202;-68
2023/08/29 06:27:24;;;;;;;12.45;5.38;;;;;13.30;95391.00;;;;8282322;28;20562;-68
2023/08/29 06:31:27;;;;;;;8.88;4.45;;;;;13.30;95394.00;;;;8279321;28;20316;-68
2023/08/29 06:35:35;;;;;;;7.95;4.43;;;;;13.40;95391.00;;;;8281792;28;20221;-68
2023/08/29 06:39:43;;;;;;;8.30;4.07;;;;;13.40;95394.00;;;;8285547;28;20292;-68
2023/08/29 06:43:47;;;;;;;7.45;3.67;;;;;13.50;95390.00;;;;8289542;28;20212;-68
2023/08/29 06:47:51;;;;;;;8.38;4.45;;;;;13.50;95402.00;;;;8282402;28;20206;-68
2023/08/29 06:51:54;;;;;;;8.65;4.22;;;;;13.60;95402.00;;;;8288122;28;20869;-68
2023/08/29 06:55:59;;;;;;;7.22;3.95;;;;;13.60;95407.00;;;;8283845;28;20305;-68
2023/08/29 07:00:03;;;;;;;7.50;4.10;;;;;13.60;95413.00;;;;8289850;28;20208;-68
2023/08/29 07:04:08;;;;;;;4.50;2.85;;;;;13.70;95405.00;;;;8289679;28;20331;-68
2023/08/29 07:08:13;;;;;;;4.95;3.60;;;;;13.70;95412.00;;;;8286194;28;20198;-68
2023/08/29 07:12:19;;;;;;;7.68;4.18;;;;;13.70;95402.00;;;;8282900;28;20556;-68
2023/08/29 07:16:26;;;;;;;2.10;1.98;;;;;13.70;95405.00;;;;8288644;28;20202;-68
2023/08/29 07:20:30;;;;;;;5.88;3.72;;;;;13.70;95406.00;;;;8285525;28;20301;-68
2023/08/29 07:24:37;;;;;;;8.35;4.32;;;;;13.70;95402.00;;;;8274462;28;20284;-68
2023/08/29 07:28:47;;;;;;;4.85;3.30;;;;;13.80;95422.00;;;;8281720;28;20313;-69
2023/08/29 07:32:50;;;;;;;8.15;3.72;;;;;13.80;95422.00;;;;8283655;28;20213;-68
2023/08/29 07:36:54;;;;;;;8.85;3.78;;;;;13.80;95424.00;;;;8284888;28;20194;-69
2023/08/29 07:41:02;;;;;;;4.80;3.20;;;;;13.90;95436.00;;;;8283534;28;20209;-69
2023/08/29 07:45:10;;;;;;;5.82;2.85;;;;;14.00;95437.00;;;;8283394;28;20198;-69
2023/08/29 07:49:14;;;;;;;3.72;2.85;;;;;14.00;95439.00;;;;8285848;28;20253;-69
2023/08/29 07:53:17;;;;;;;4.30;3.03;;;;;14.10;95445.00;;;;8282292;28;20281;-68
2023/08/29 07:57:22;;;;;;;4.05;2.70;;;;;14.10;95446.00;;;;8281407;28;20204;-68
2023/08/29 08:01:26;;;;;;;2.80;2.60;;;;;14.10;95446.00;;;;8284229;28;20925;-68
2023/08/29 08:05:30;;;;;;;3.75;2.30;;;;;14.10;95462.00;;;;8281672;28;20197;-68
2023/08/29 08:09:33;;;;;;;2.53;2.17;;;;;14.10;95466.00;;;;8273095;28;20237;-68
2023/08/29 08:13:40;;;;;;;2.72;2.28;;;;;14.20;95460.00;;;;8274133;28;20217;-68
2023/08/29 08:17:46;;;;;;;3.15;2.50;;;;;14.10;95453.00;;;;8277160;28;20698;-68
2023/08/29 08:21:52;;;;;;;2.55;2.35;;;;;14.20;95462.00;;;;8276830;28;20202;-68
2023/08/29 08:26:03;;;;;;;2.83;2.05;;;;;14.20;95466.00;;;;8278193;28;20292;-68
2023/08/29 08:30:08;;;;;;;3.72;1.90;;;;;14.20;95471.00;;;;8276429;28;20236;-68
2023/08/29 08:34:15;;;;;;;2.95;2.58;;;;;14.10;95481.00;;;;8279420;28;20206;-68
2023/08/29 08:38:18;;;;;;;3.28;2.60;;;;;14.20;95476.00;;;;8282424;28;20665;-68
2023/08/29 08:42:22;;;;;;;3.97;2.40;;;;;14.30;95476.00;;;;8277299;28;20839;-68
2023/08/29 08:46:28;;;;;;;2.63;2.40;;;;;14.30;95477.00;;;;8276140;28;20230;-68
2023/08/29 08:50:36;;;;;;;5.78;3.38;;;;;14.40;95491.00;;;;8273173;28;20610;-68
2023/08/29 08:54:42;;;;;;;2.63;2.42;;;;;14.50;95502.00;;;;8276056;28;20222;-68
2023/08/29 08:58:45;;;;;;;2.72;2.50;;;;;14.50;95500.00;;;;8280842;28;20288;-68
2023/08/29 09:02:49;;;;;;;5.38;2.72;;;;;14.50;95497.00;;;;8278700;28;20709;-68
2023/08/29 09:06:54;;;;;;;4.68;2.22;;;;;14.60;95498.00;;;;8281904;28;20198;-68
2023/08/29 09:11:01;;;;;;;2.88;2.58;;;;;14.60;95491.00;;;;8279668;28;20236;-68
2023/08/29 09:15:06;;;;;;;3.80;2.40;;;;;14.60;95492.00;;;;8282091;28;20237;-68
2023/08/29 09:19:13;;;;;;;3.67;2.33;;;;;14.60;95488.00;;;;8280706;28;20758;-68
2023/08/29 09:23:25;;;;;;;4.32;2.63;;;;;14.70;95497.00;;;;8280521;28;20213;-68
2023/08/29 09:27:28;;;;;;;2.33;2.13;;;;;14.60;95513.00;;;;8278518;28;20667;-68
2023/08/29 09:31:31;;;;;;;2.80;2.60;;;;;14.50;95508.00;;;;8279988;28;20238;-68
2023/08/29 09:35:35;;;;;;;2.38;2.28;;;;;14.70;95519.00;;;;8281947;28;20233;-68
2023/08/29 09:39:39;;;;;;;4.40;2.50;;;;;14.70;95513.00;;;;8279274;28;20714;-68
2023/08/29 09:43:47;;;;;;;2.22;2.05;;;;;14.70;95517.00;;;;8273462;28;20652;-67
2023/08/29 09:47:55;;;;;;;2.67;2.25;;;;;14.50;95520.00;;;;8279967;28;20210;-68
2023/08/29 09:52:02;;;;;;;2.10;2.00;;;;;14.50;95519.00;;;;8283078;28;20225;-68
2023/08/29 09:56:10;;;;;;;2.10;1.95;;;;;14.60;95531.00;;;;8269620;28;20194;-68
2023/08/29 10:00:15;;;;;;;2.40;2.20;;;;;14.50;95515.00;;;;8268183;28;20237;-68
2023/08/29 10:04:22;;;;;;;2.30;2.17;;;;;14.60;95520.00;;;;8267807;28;20939;-68
2023/08/29 10:08:40;;;;;;;2.00;1.90;;;;;14.70;95526.00;;;;8271209;28;20213;-68
2023/08/29 10:12:46;;;;;;;2.63;2.38;;;;;14.80;95538.00;;;;8277229;28;20334;-68
2023/08/29 10:16:50;;;;;;;1.40;1.25;;;;;14.90;95542.00;;;;8275565;28;20284;-68
2023/08/29 10:20:57;;;;;;;2.00;1.90;;;;;14.90;95543.00;;;;8277183;28;20209;-68
2023/08/29 10:25:02;;;;;;;2.40;2.20;;;;;14.90;95520.00;;;;8278012;28;20225;-68
2023/08/29 10:29:10;;;;;;;2.88;1.95;;;;;15.10;95524.00;;;;8278197;28;20203;-68
2023/08/29 10:33:13;;;;;;;2.25;2.15;;;;;15.10;95526.00;;;;8278223;28;20644;-68
2023/08/29 10:37:18;;;;;;;2.75;1.90;;;;;15.30;95525.00;;;;8275672;28;20198;-68
2023/08/29 10:41:21;;;;;;;2.00;1.90;;;;;15.20;95527.00;;;;8278897;28;20858;-68
2023/08/29 10:50:03;;;;;;;2.30;2.10;;;;;15.10;95525.00;;;;8402725;27;22687;-67
2023/08/29 10:54:13;;;;;;;2.03;1.90;;;;;15.10;95538.00;;;;8369440;28;21163;-67
2023/08/29 10:58:34;;;;;;;2.60;1.98;;;;;15.10;95544.00;;;;8371453;28;20199;-68
2023/08/29 11:02:41;;;;;;;2.00;1.90;;;;;15.20;95541.00;;;;8368897;28;20924;-68
2023/08/29 11:06:56;;;;;;;1.17;1.08;;;;;15.20;95539.00;;;;8370737;28;20282;-65
2023/08/29 11:11:16;;;;;;;0.40;0.40;;;;;15.20;95540.00;;;;8371332;28;20207;-65
2023/08/29 11:15:20;;;;;;;0.40;0.40;;;;;15.30;95543.00;;;;8369321;28;20207;-66
2023/08/29 11:19:23;;;;;;;0.60;0.60;;;;;15.40;95531.00;;;;8369944;28;20930;-65
2023/08/29 11:23:35;;;;;;;0.40;0.40;;;;;15.50;95520.00;;;;8370044;28;20228;-66
2023/08/29 11:27:39;;;;;;;0.40;0.40;;;;;15.40;95521.00;;;;8370505;28;20240;-66
2023/08/29 11:31:43;;;;;;;0.40;0.40;;;;;15.60;95525.00;;;;8366946;28;20804;-66
2023/08/29 11:35:46;;;;;;;0.50;0.50;;;;;15.70;95531.00;;;;8365312;28;20294;-66
2023/08/29 11:39:55;;;;;;;0.40;0.40;;;;;15.70;95534.00;;;;8369572;28;20192;-66
2023/08/29 11:44:01;;;;;;;0.40;0.40;;;;;15.60;95538.00;;;;8364640;28;20632;-66
2023/08/29 11:48:28;;;;;;;0.40;0.40;;;;;15.60;95536.00;;;;8370838;28;20294;-66
2023/08/29 11:52:37;;;;;;;0.40;0.40;;;;;15.50;95532.00;;;;8368091;28;20204;-66
2023/08/29 11:56:42;;;;;;;0.60;0.60;;;;;15.60;95541.00;;;;8371332;28;20212;-67
2023/08/29 12:00:49;;;;;;;0.40;0.40;;;;;15.70;95539.00;;;;8350533;28;20312;-67
2023/08/29 12:04:56;;;;;;;0.30;0.30;;;;;15.80;95537.00;;;;8342650;28;20302;-67
2023/08/29 12:09:03;;;;;;;0.55;0.55;;;;;15.80;95542.00;;;;8346753;28;20228;-67
2023/08/29 12:13:17;;;;;;;0.40;0.40;;;;;15.70;95548.00;;;;8347057;28;20725;-67
2023/08/29 12:17:21;;;;;;;0.40;0.40;;;;;15.70;95550.00;;;;8345201;28;20196;-68
2023/08/29 12:21:24;;;;;;;0.50;0.50;;;;;15.90;95554.00;;;;8347267;28;20283;-68
2023/08/29 12:25:28;;;;;;;0.40;0.40;;;;;16.00;95556.00;;;;8345093;28;20662;-67
2023/08/29 12:29:33;;;;;;;0.40;0.40;;;;;16.10;95550.00;;;;8346424;28;20985;-68
2023/08/29 12:33:36;;;;;;;0.40;0.40;;;;;16.30;95559.00;;;;8342656;28;20280;-67
2023/08/29 12:37:44;;;;;;;0.30;0.30;;;;;16.50;95555.00;;;;8346067;28;20196;-66
2023/08/29 12:41:49;;;;;;;0.40;0.40;;;;;16.60;95552.00;;;;8348157;28;20308;-67
2023/08/29 12:45:54;;;;;;;0.30;0.30;;;;;16.80;95550.00;;;;8345685;28;20209;-69
2023/08/29 12:50:05;;;;;;;0.30;0.30;;;;;17.10;95537.00;;;;8348122;28;20298;-69
2023/08/29 12:54:11;;;;;;;0.30;0.30;;;;;17.60;95533.00;;;;8344129;28;20258;-69
2023/08/29 12:58:17;;;;;;;0.35;0.35;;;;;18.00;95541.00;;;;8346499;28;20200;-68
2023/08/29 13:02:22;;;;;;;0.30;0.30;;;;;18.20;95550.00;;;;8346624;28;20216;-68
2023/08/29 13:06:30;;;;;;;0.32;0.32;;;;;18.40;95543.00;;;;8338548;28;20205;-68
2023/08/29 13:10:33;;;;;;;0.30;0.30;;;;;18.10;95542.00;;;;8326355;28;20319;-68
2023/08/29 13:14:38;;;;;;;0.40;0.40;;;;;17.80;95529.00;;;;8335316;28;20196;-68
2023/08/29 13:18:45;;;;;;;0.43;0.43;;;;;17.60;95520.00;;;;8336695;28;20196;-68
2023/08/29 13:22:49;;;;;;;0.30;0.30;;;;;17.90;95524.00;;;;8341137;28;20284;-68
2023/08/29 13:26:53;;;;;;;0.32;0.32;;;;;18.20;95526.00;;;;8344506;28;20200;-68
2023/08/29 13:30:59;;;;;;;0.50;0.50;;;;;18.00;95532.00;;;;8342349;28;20201;-68
2023/08/29 13:35:10;;;;;;;0.47;0.47;;;;;17.30;95536.00;;;;8342950;28;20201;-68
2023/08/29 13:39:17;;;;;;;0.32;0.32;;;;;16.60;95533.00;;;;8340971;28;20334;-68
2023/08/29 13:43:20;;;;;;;0.30;0.30;;;;;16.10;95537.00;;;;8341377;28;20825;-66
2023/08/29 13:47:24;;;;;;;0.32;0.32;;;;;16.00;95529.00;;;;8340530;28;20228;-66
2023/08/29 13:51:29;;;;;;;0.40;0.40;;;;;15.90;95532.00;;;;8343081;28;20803;-67
2023/08/29 13:55:35;;;;;;;0.30;0.30;;;;;16.00;95530.00;;;;8337026;28;20222;-67
2023/08/29 13:59:39;;;;;;;0.40;0.40;;;;;16.00;95526.00;;;;8341476;28;20197;-67
2023/08/29 14:03:43;;;;;;;0.40;0.40;;;;;16.10;95535.00;;;;8338319;28;20307;-67
2023/08/29 14:07:50;;;;;;;0.40;0.40;;;;;16.30;95530.00;;;;8342489;28;20227;-66
2023/08/29 14:11:54;;;;;;;0.40;0.40;;;;;16.60;95532.00;;;;8342921;28;20284;-66
2023/08/29 14:16:00;;;;;;;0.40;0.40;;;;;16.80;95531.00;;;;8342936;28;20212;-67
2023/08/29 14:20:05;;;;;;;0.40;0.40;;;;;17.00;95523.00;;;;8342743;28;20205;-67
2023/08/29 14:24:09;;;;;;;0.40;0.40;;;;;17.20;95537.00;;;;8341059;28;20193;-67
2023/08/29 14:28:13;;;;;;;0.40;0.40;;;;;17.30;95536.00;;;;8341581;28;20724;-67
2023/08/29 14:32:18;;;;;;;0.40;0.40;;;;;17.40;95538.00;;;;8339196;28;20200;-67
2023/08/29 14:36:21;;;;;;;0.40;0.40;;;;;17.50;95551.00;;;;8334375;28;20280;-68
2023/08/29 14:40:27;;;;;;;0.40;0.40;;;;;17.50;95547.00;;;;8332989;28;20711;-67
2023/08/29 14:44:34;;;;;;;0.40;0.40;;;;;17.50;95558.00;;;;8336844;28;20197;-68
2023/08/29 14:48:38;;;;;;;0.40;0.40;;;;;17.50;95552.00;;;;8340298;28;21389;-68
2023/08/29 14:52:41;;;;;;;0.77;0.77;;;;;17.30;95558.00;;;;8338261;28;20352;-68
2023/08/29 14:56:48;;;;;;;0.50;0.50;;;;;17.30;95558.00;;;;8342525;28;20838;-68
2023/08/29 15:00:56;;;;;;;0.50;0.50;;;;;17.10;95552.00;;;;8342641;28;20312;-68
2023/08/29 15:04:59;;;;;;;0.40;0.40;;;;;17.00;95555.00;;;;8340182;28;20224;-67
2023/08/29 15:09:04;;;;;;;0.65;0.65;;;;;16.90;95560.00;;;;8347855;28;20843;-68
2023/08/29 15:13:12;;;;;;;0.70;0.70;;;;;16.80;95562.00;;;;8344580;28;20201;-68
2023/08/29 15:17:19;;;;;;;0.40;0.40;;;;;16.90;95562.00;;;;8345047;28;20288;-68
2023/08/29 15:21:23;;;;;;;0.52;0.52;;;;;16.90;95560.00;;;;8343038;28;21901;-67
2023/08/29 15:25:29;;;;;;;0.40;0.40;;;;;16.90;95567.00;;;;8338066;28;20825;-68
2023/08/29 15:29:33;;;;;;;0.40;0.40;;;;;16.90;95573.00;;;;8340214;28;20239;-69
2023/08/29 15:33:36;;;;;;;0.38;0.38;;;;;16.90;95566.00;;;;8338393;28;20310;-68
2023/08/29 15:37:40;;;;;;;0.40;0.40;;;;;16.90;95572.00;;;;8346056;28;20280;-70
2023/08/29 15:41:46;;;;;;;0.40;0.40;;;;;16.90;95582.00;;;;8343879;28;20216;-69
2023/08/29 15:45:51;;;;;;;0.60;0.60;;;;;16.90;95572.00;;;;8343614;28;20296;-68
2023/08/29 15:49:54;;;;;;;0.40;0.40;;;;;16.90;95580.00;;;;8347258;28;20233;-69
2023/08/29 15:53:59;;;;;;;0.52;0.52;;;;;16.80;95582.00;;;;8347978;28;20196;-70
2023/08/29 15:58:03;;;;;;;0.40;0.40;;;;;16.70;95585.00;;;;8345486;28;20297;-70
2023/08/29 16:02:08;;;;;;;0.40;0.40;;;;;16.80;95597.00;;;;8345691;28;20225;-69
2023/08/29 16:06:11;;;;;;;0.40;0.40;;;;;16.80;95595.00;;;;8343720;28;20721;-69
2023/08/29 16:10:15;;;;;;;0.40;0.40;;;;;16.70;95595.00;;;;8348856;28;20316;-70
2023/08/29 16:14:20;;;;;;;0.50;0.50;;;;;16.70;95597.00;;;;8346894;28;20197;-69
2023/08/29 16:18:25;;;;;;;0.32;0.32;;;;;16.60;95598.00;;;;8347144;28;20798;-69
2023/08/29 16:22:30;;;;;;;0.40;0.40;;;;;16.60;95601.00;;;;8350584;28;20251;-70
2023/08/29 16:26:36;;;;;;;0.40;0.40;;;;;16.60;95604.00;;;;8344874;28;20243;-68
2023/08/29 16:30:40;;;;;;;0.30;0.30;;;;;16.60;95609.00;;;;8350323;28;20223;-70
2023/08/29 16:34:45;;;;;;;0.30;0.30;;;;;16.50;95608.00;;;;8346208;28;20593;-70
2023/08/29 16:38:49;;;;;;;0.40;0.40;;;;;16.40;95614.00;;;;8345104;28;20197;-70
2023/08/29 16:42:54;;;;;;;0.40;0.40;;;;;16.30;95619.00;;;;8345974;28;20236;-70
2023/08/29 16:46:57;;;;;;;0.40;0.40;;;;;16.20;95620.00;;;;8346714;28;20291;-70
2023/08/29 16:51:06;;;;;;;0.40;0.40;;;;;16.20;95620.00;;;;8337486;28;20232;-68
2023/08/29 16:55:12;;;;;;;0.32;0.32;;;;;16.20;95625.00;;;;8342678;28;20235;-69
2023/08/29 16:59:15;;;;;;;0.30;0.30;;;;;16.10;95611.00;;;;8340755;28;20213;-69
2023/08/29 17:03:19;;;;;;;0.30;0.30;;;;;16.20;95618.00;;;;8336004;28;20307;-69
2023/08/29 17:07:27;;;;;;;0.35;0.35;;;;;16.10;95605.00;;;;8339495;28;20203;-69
2023/08/29 17:11:34;;;;;;;0.40;0.40;;;;;16.00;95610.00;;;;8340196;28;20320;-70
2023/08/29 17:15:37;;;;;;;0.30;0.30;;;;;15.90;95621.00;;;;8339773;28;20201;-71
2023/08/29 17:19:41;;;;;;;0.30;0.30;;;;;15.90;95624.00;;;;8336305;28;20200;-71
2023/08/29 17:23:50;;;;;;;0.40;0.40;;;;;15.80;95631.00;;;;8338718;28;20208;-71
2023/08/29 17:27:55;;;;;;;0.40;0.40;;;;;15.70;95635.00;;;;8332652;28;20207;-71
2023/08/29 17:32:00;;;;;;;0.40;0.40;;;;;15.60;95640.00;;;;8335732;28;20216;-70
2023/08/29 17:36:07;;;;;;;0.30;0.30;;;;;15.60;95632.00;;;;8337614;28;20224;-69
2023/08/29 17:40:13;;;;;;;0.30;0.30;;;;;15.60;95635.00;;;;8334271;28;20211;-69
2023/08/29 17:44:16;;;;;;;0.30;0.30;;;;;15.50;95632.00;;;;8342919;28;20205;-69
2023/08/29 17:48:24;;;;;;;0.40;0.40;;;;;15.50;95639.00;;;;8344790;28;20738;-69
2023/08/29 17:52:29;;;;;;;0.38;0.38;;;;;15.50;95635.00;;;;8344926;28;20247;-68
2023/08/29 17:56:34;;;;;;;0.30;0.30;;;;;15.50;95637.00;;;;8343038;28;20201;-68
2023/08/29 18:00:38;;;;;;;0.30;0.30;;;;;15.50;95641.00;;;;8336247;28;20665;-68
2023/08/29 18:04:44;;;;;;;0.30;0.30;;;;;15.40;95637.00;;;;8336170;28;20245;-68
2023/08/29 18:08:52;;;;;;;0.40;0.40;;;;;15.40;95638.00;;;;8331040;28;20287;-68
2023/08/29 18:12:56;;;;;;;0.30;0.30;;;;;15.40;95642.00;;;;8334064;28;20228;-69
2023/08/29 18:17:01;;;;;;;0.40;0.40;;;;;15.30;95648.00;;;;8328195;28;20565;-67
2023/08/29 18:21:07;;;;;;;0.30;0.30;;;;;15.20;95648.00;;;;8336415;28;20208;-66
2023/08/29 18:25:13;;;;;;;0.40;0.40;;;;;15.20;95651.00;;;;8332574;28;20200;-66
2023/08/29 18:29:18;;;;;;;0.40;0.40;;;;;15.10;95656.00;;;;8336297;28;20255;-66
2023/08/29 18:33:22;;;;;;;0.30;0.30;;;;;15.10;95644.00;;;;8339144;28;20803;-66
2023/08/29 18:37:27;;;;;;;0.40;0.40;;;;;15.10;95655.00;;;;8344259;28;20212;-66
2023/08/29 18:41:33;;;;;;;0.40;0.40;;;;;15.00;95658.00;;;;8339665;28;20196;-66
2023/08/29 18:45:38;;;;;;;0.40;0.40;;;;;15.00;95671.00;;;;8337992;28;20308;-67
2023/08/29 18:49:41;;;;;;;0.30;0.30;;;;;15.00;95667.00;;;;8343333;28;20224;-67
2023/08/29 18:53:48;;;;;;;0.40;0.40;;;;;15.00;95674.00;;;;8342549;28;20219;-67
2023/08/29 18:57:54;;;;;;;0.30;0.30;;;;;15.10;95677.00;;;;8339477;28;20201;-67
2023/08/29 19:01:59;;;;;;;0.40;0.40;;;;;15.10;95672.00;;;;8341563;28;21159;-67
2023/08/29 19:06:07;;;;;;;0.40;0.40;;;;;15.10;95672.00;;;;8343043;28;20193;-67
2023/08/29 19:10:16;;;;;;;0.40;0.40;;;;;15.10;95670.00;;;;8343994;28;20231;-67
2023/08/29 19:14:20;;;;;;;0.38;0.38;;;;;15.10;95663.00;;;;8345211;28;20211;-66
2023/08/29 19:18:26;;;;;;;0.35;0.35;;;;;15.10;95664.00;;;;8350453;28;20283;-67
2023/08/29 19:22:31;;;;;;;0.40;0.40;;;;;15.00;95665.00;;;;8346703;28;20200;-66
2023/08/29 19:26:34;;;;;;;0.30;0.30;;;;;15.00;95673.00;;;;8344588;28;20232;-67
2023/08/29 19:30:39;;;;;;;0.40;0.40;;;;;14.90;95675.00;;;;8339652;28;20788;-66
2023/08/29 19:34:47;;;;;;;0.40;0.40;;;;;14.90;95670.00;;;;8335490;28;20312;-67
2023/08/29 19:38:50;;;;;;;0.40;0.40;;;;;14.90;95676.00;;;;8341532;28;20193;-68
2023/08/29 19:43:20;;;;;;;0.30;0.30;;;;;14.90;95674.00;;;;8342728;28;20201;-69
2023/08/29 19:47:25;;;;;;;0.40;0.40;;;;;14.80;95669.00;;;;8339443;28;20295;-68
2023/08/29 19:51:30;;;;;;;0.38;0.38;;;;;14.80;95672.00;;;;8348094;28;20225;-68
2023/08/29 19:55:36;;;;;;;0.40;0.40;;;;;14.80;95666.00;;;;8341526;28;20728;-68
2023/08/29 19:59:42;;;;;;;0.40;0.40;;;;;14.80;95657.00;;;;8337638;28;20216;-67
2023/08/29 20:03:45;;;;;;;0.40;0.40;;;;;14.70;95648.00;;;;8333833;28;20224;-69
2023/08/29 20:12:13;;;;;;;0.40;0.40;;;;;14.70;95648.00;;;;8336584;28;20213;-68
2023/08/29 20:16:18;;;;;;;0.30;0.30;;;;;14.70;95642.00;;;;8336280;28;20543;-68
2023/08/29 20:20:23;;;;;;;0.40;0.40;;;;;14.70;95653.00;;;;8337353;28;20278;-69
2023/08/29 20:24:28;;;;;;;0.40;0.40;;;;;14.70;95665.00;;;;8341606;28;20385;-68
2023/08/29 20:28:31;;;;;;;0.40;0.40;;;;;14.70;95660.00;;;;8342399;28;20298;-69
2023/08/29 20:32:34;;;;;;;0.40;0.40;;;;;14.70;95669.00;;;;8341659;28;20235;-68
2023/08/29 20:36:39;;;;;;;0.40;0.40;;;;;14.70;95673.00;;;;8349294;28;20238;-68